createdAt,value
2017-06-21T00:00:35.335Z,17.30
2017-06-21T00:03:09.528Z,21.27
2017-06-21T00:05:43.796Z,16.27
2017-06-21T00:08:18.049Z,13.50
2017-06-21T00:10:52.183Z,13.37
2017-06-21T00:13:26.355Z,12.60
2017-06-21T00:16:00.617Z,12.33
2017-06-21T00:18:34.839Z,13.70
2017-06-21T00:21:08.977Z,13.30
2017-06-21T00:23:42.989Z,11.10
2017-06-21T00:26:17.181Z,11.43
2017-06-21T00:28:51.265Z,11.77
2017-06-21T00:31:25.458Z,11.40
2017-06-21T00:33:59.479Z,11.13
2017-06-21T00:36:33.661Z,10.63
2017-06-21T00:39:07.900Z,11.50
2017-06-21T00:41:42.015Z,11.10
2017-06-21T00:44:16.189Z,11.00
2017-06-21T00:46:50.298Z,11.00
2017-06-21T00:49:24.562Z,12.03
2017-06-21T00:51:58.777Z,11.60
2017-06-21T00:54:33.010Z,10.77
2017-06-21T00:57:07.166Z,11.37
2017-06-21T00:59:41.581Z,10.90
2017-06-21T01:02:15.642Z,10.83
2017-06-21T01:04:49.960Z,11.30
2017-06-21T01:07:24.196Z,11.40
2017-06-21T01:09:58.343Z,10.30
2017-06-21T01:12:32.727Z,10.63
2017-06-21T01:15:06.836Z,10.33
2017-06-21T01:17:41.113Z,10.73
2017-06-21T01:20:15.521Z,10.87
2017-06-21T01:22:49.798Z,10.30
2017-06-21T01:25:24.186Z,11.40
2017-06-21T01:27:58.811Z,10.27
2017-06-21T01:30:33.025Z,10.70
2017-06-21T01:33:07.273Z,10.03
2017-06-21T01:35:41.385Z,10.30
2017-06-21T01:38:15.573Z,10.20
2017-06-21T01:40:49.679Z,9.63
2017-06-21T01:43:23.841Z,14.57
2017-06-21T01:45:58.103Z,10.07
2017-06-21T01:48:32.445Z,12.10
2017-06-21T01:51:06.574Z,10.40
2017-06-21T01:53:40.657Z,9.80
2017-06-21T01:56:15.087Z,10.63
2017-06-21T01:58:49.164Z,9.90
2017-06-21T02:01:23.421Z,9.77
2017-06-21T02:03:57.777Z,10.33
2017-06-21T02:06:32.198Z,10.60
2017-06-21T02:09:06.352Z,11.00
2017-06-21T02:11:40.445Z,9.60
2017-06-21T02:14:14.720Z,10.07
2017-06-21T02:16:49.006Z,10.10
2017-06-21T02:19:23.073Z,10.00
2017-06-21T02:21:57.188Z,9.90
2017-06-21T02:24:31.356Z,10.67
2017-06-21T02:27:05.600Z,9.33
2017-06-21T02:29:39.741Z,9.80
2017-06-21T02:32:13.924Z,9.40
2017-06-21T02:34:48.133Z,12.50
2017-06-21T02:37:22.285Z,9.63
2017-06-21T02:39:56.480Z,9.40
2017-06-21T02:42:30.580Z,10.47
2017-06-21T02:45:04.741Z,9.87
2017-06-21T02:47:38.753Z,10.03
2017-06-21T02:50:12.910Z,9.57
2017-06-21T02:52:46.916Z,8.80
2017-06-21T02:55:21.129Z,8.80
2017-06-21T02:57:55.533Z,10.30
2017-06-21T03:00:29.698Z,9.23
2017-06-21T03:03:03.899Z,9.47
2017-06-21T03:05:37.927Z,9.67
2017-06-21T03:08:12.076Z,9.43
2017-06-21T03:10:46.238Z,8.90
2017-06-21T03:13:20.375Z,9.43
2017-06-21T03:15:54.653Z,11.90
2017-06-21T03:18:28.984Z,9.53
2017-06-21T03:21:03.297Z,9.17
2017-06-21T03:23:37.575Z,9.60
2017-06-21T03:26:11.875Z,8.80
2017-06-21T03:28:45.892Z,9.03
2017-06-21T03:31:20.041Z,8.43
2017-06-21T03:33:54.245Z,9.73
2017-06-21T03:36:28.526Z,9.70
2017-06-21T03:39:02.685Z,9.43
2017-06-21T03:41:36.941Z,9.10
2017-06-21T03:44:11.146Z,8.77
2017-06-21T03:46:45.380Z,8.80
2017-06-21T03:49:19.571Z,10.47
2017-06-21T03:51:53.856Z,9.37
2017-06-21T03:54:28.072Z,9.40
2017-06-21T03:57:02.369Z,9.10
2017-06-21T03:59:36.621Z,8.97
2017-06-21T04:02:11.092Z,9.70
2017-06-21T04:04:45.364Z,9.20
2017-06-21T04:07:19.727Z,9.83
2017-06-21T04:09:54.052Z,9.97
2017-06-21T04:12:28.191Z,10.17
2017-06-21T04:15:02.447Z,9.80
2017-06-21T04:17:36.628Z,9.10
2017-06-21T04:20:11.072Z,9.83
2017-06-21T04:22:45.232Z,10.07
2017-06-21T04:25:19.519Z,9.87
2017-06-21T04:27:53.838Z,9.93
2017-06-21T04:30:28.100Z,9.77
2017-06-21T04:33:02.359Z,11.93
2017-06-21T04:35:36.804Z,9.60
2017-06-21T04:38:11.410Z,10.77
2017-06-21T04:40:45.675Z,10.70
2017-06-21T04:43:19.983Z,9.67
2017-06-21T04:45:54.281Z,9.93
2017-06-21T04:48:28.416Z,9.57
2017-06-21T04:51:02.664Z,11.97
2017-06-21T04:53:36.868Z,10.23
2017-06-21T04:56:11.095Z,11.10
2017-06-21T04:58:45.467Z,10.90
2017-06-21T05:01:19.652Z,9.93
2017-06-21T05:03:53.943Z,9.70
2017-06-21T05:06:28.349Z,9.20
2017-06-21T05:09:02.580Z,9.73
2017-06-21T05:11:36.811Z,10.03
2017-06-21T05:14:11.050Z,10.33
2017-06-21T05:16:45.339Z,9.87
2017-06-21T05:19:19.500Z,11.30
2017-06-21T05:21:53.832Z,10.77
2017-06-21T05:24:27.875Z,13.17
2017-06-21T05:27:02.284Z,11.10
2017-06-21T05:29:36.450Z,11.90
2017-06-21T05:32:10.665Z,11.57
2017-06-21T05:34:44.790Z,11.47
2017-06-21T05:37:18.984Z,11.77
2017-06-21T05:39:53.172Z,11.47
2017-06-21T05:42:27.362Z,11.40
2017-06-21T05:45:01.617Z,12.10
2017-06-21T05:47:35.787Z,10.60
2017-06-21T05:50:09.853Z,11.20
2017-06-21T05:52:43.989Z,12.07
2017-06-21T05:55:18.192Z,10.70
2017-06-21T05:57:52.429Z,10.80
2017-06-21T06:00:26.694Z,11.80
2017-06-21T06:03:00.837Z,11.30
2017-06-21T06:05:34.982Z,11.00
2017-06-21T06:08:09.257Z,12.13
2017-06-21T06:10:43.337Z,11.43
2017-06-21T06:13:17.569Z,15.40
2017-06-21T06:15:54.545Z,12.80
2017-06-21T06:18:28.806Z,11.23
2017-06-21T06:23:43.766Z,11.37
2017-06-21T06:26:17.961Z,12.60
2017-06-21T06:28:52.015Z,11.33
2017-06-21T06:31:26.132Z,11.63
2017-06-21T06:34:00.218Z,11.40
2017-06-21T06:36:34.560Z,12.50
2017-06-21T06:39:08.727Z,13.10
2017-06-21T06:41:42.768Z,12.50
2017-06-21T06:44:16.987Z,12.03
2017-06-21T06:46:51.114Z,11.93
2017-06-21T06:49:25.241Z,12.30
2017-06-21T06:51:59.396Z,11.80
2017-06-21T06:54:33.467Z,12.13
2017-06-21T06:57:07.978Z,12.90
2017-06-21T06:59:42.216Z,12.50
2017-06-21T07:02:16.328Z,12.13
2017-06-21T07:04:50.505Z,11.80
2017-06-21T07:07:24.807Z,11.47
2017-06-21T07:09:58.917Z,11.73
2017-06-21T07:12:33.069Z,11.43
2017-06-21T07:15:07.232Z,11.90
2017-06-21T07:17:41.334Z,12.17
2017-06-21T07:20:15.452Z,11.00
2017-06-21T07:22:49.999Z,11.70
2017-06-21T07:25:24.140Z,11.70
2017-06-21T07:27:58.364Z,13.90
2017-06-21T07:30:32.565Z,13.47
2017-06-21T07:33:06.780Z,11.70
2017-06-21T07:35:40.964Z,12.97
2017-06-21T07:38:16.512Z,11.77
2017-06-21T07:40:50.638Z,12.67
2017-06-21T07:43:24.821Z,12.77
2017-06-21T07:45:59.019Z,13.30
2017-06-21T07:48:33.229Z,12.57
2017-06-21T07:51:07.370Z,12.73
2017-06-21T07:53:41.746Z,12.90
2017-06-21T07:56:15.882Z,12.73
2017-06-21T07:58:49.962Z,11.83
2017-06-21T08:01:24.446Z,11.53
2017-06-21T08:03:58.527Z,10.73
2017-06-21T08:06:32.956Z,11.30
2017-06-21T08:09:07.055Z,11.73
2017-06-21T08:11:41.208Z,11.37
2017-06-21T08:14:15.445Z,12.90
2017-06-21T08:16:49.570Z,12.40
2017-06-21T08:19:23.766Z,11.63
2017-06-21T08:21:57.888Z,11.03
2017-06-21T08:24:32.130Z,11.10
2017-06-21T08:27:06.292Z,12.63
2017-06-21T08:29:40.444Z,11.73
2017-06-21T08:32:14.677Z,11.60
2017-06-21T08:34:48.892Z,11.57
2017-06-21T08:37:23.185Z,12.10
2017-06-21T08:39:57.508Z,11.57
2017-06-21T08:42:31.585Z,11.77
2017-06-21T08:45:05.828Z,11.83
2017-06-21T08:47:39.948Z,11.97
2017-06-21T08:50:13.965Z,11.50
2017-06-21T08:52:48.073Z,11.73
2017-06-21T08:55:22.449Z,11.87
2017-06-21T08:57:56.792Z,12.17
2017-06-21T09:00:31.329Z,10.90
2017-06-21T09:03:05.688Z,11.67
2017-06-21T09:05:39.927Z,11.90
2017-06-21T09:08:14.377Z,11.03
2017-06-21T09:10:48.723Z,11.27
2017-06-21T09:13:22.822Z,11.50
2017-06-21T09:15:57.173Z,10.63
2017-06-21T09:18:31.344Z,11.73
2017-06-21T09:21:05.847Z,10.87
2017-06-21T09:23:39.877Z,10.93
2017-06-21T09:26:14.004Z,11.67
2017-06-21T09:28:48.263Z,11.20
2017-06-21T09:31:22.513Z,11.00
2017-06-21T09:33:56.704Z,11.53
2017-06-21T09:36:31.295Z,10.67
2017-06-21T09:39:05.462Z,11.43
2017-06-21T09:41:39.700Z,12.10
2017-06-21T09:44:13.934Z,11.33
2017-06-21T09:46:48.225Z,11.03
2017-06-21T09:49:22.397Z,11.10
2017-06-21T09:51:56.746Z,11.20
2017-06-21T09:54:30.905Z,10.80
2017-06-21T09:57:05.243Z,12.80
2017-06-21T09:59:39.359Z,11.97
2017-06-21T10:02:13.798Z,11.10
2017-06-21T10:04:48.165Z,12.13
2017-06-21T10:07:22.505Z,12.80
2017-06-21T10:09:56.631Z,11.17
2017-06-21T10:12:31.012Z,11.47
2017-06-21T10:15:05.193Z,12.17
2017-06-21T10:17:39.309Z,12.57
2017-06-21T10:20:13.496Z,13.20
2017-06-21T10:22:47.593Z,12.73
2017-06-21T10:25:21.929Z,11.47
2017-06-21T10:27:56.044Z,10.57
2017-06-21T10:30:30.510Z,11.90
2017-06-21T10:33:04.805Z,11.80
2017-06-21T10:35:39.287Z,11.40
2017-06-21T10:38:13.868Z,10.70
2017-06-21T10:40:48.061Z,11.97
2017-06-21T10:43:22.349Z,11.80
2017-06-21T10:45:56.442Z,11.47
2017-06-21T10:48:30.522Z,10.70
2017-06-21T10:51:04.836Z,12.00
2017-06-21T10:53:38.988Z,10.90
2017-06-21T10:56:13.306Z,11.63
2017-06-21T10:58:47.390Z,10.70
2017-06-21T11:01:21.553Z,10.80
2017-06-21T11:03:55.711Z,10.60
2017-06-21T11:06:29.900Z,11.20
2017-06-21T11:09:04.077Z,10.67
2017-06-21T11:11:38.239Z,10.97
2017-06-21T11:14:12.408Z,11.57
2017-06-21T11:16:46.426Z,11.93
2017-06-21T11:19:20.483Z,10.90
2017-06-21T11:21:54.481Z,12.73
2017-06-21T11:24:28.666Z,11.00
2017-06-21T11:27:02.793Z,10.60
2017-06-21T11:29:37.896Z,11.17
2017-06-21T11:32:12.167Z,11.37
2017-06-21T11:34:46.393Z,10.40
2017-06-21T11:37:21.595Z,10.63
2017-06-21T11:39:55.692Z,10.93
2017-06-21T11:42:29.853Z,10.63
2017-06-21T11:45:04.009Z,10.37
2017-06-21T11:47:38.148Z,11.20
2017-06-21T11:50:12.187Z,10.77
2017-06-21T11:52:46.255Z,11.00
2017-06-21T11:55:20.400Z,10.93
2017-06-21T11:57:54.444Z,10.60
2017-06-21T12:00:28.643Z,11.97
2017-06-21T12:03:02.787Z,11.47
2017-06-21T12:05:36.802Z,10.53
2017-06-21T12:08:10.983Z,10.33
2017-06-21T12:10:45.111Z,10.60
2017-06-21T12:13:19.255Z,10.37
2017-06-21T12:15:53.268Z,10.20
2017-06-21T12:18:27.398Z,10.73
2017-06-21T12:21:01.563Z,11.43
2017-06-21T12:23:35.615Z,10.83
2017-06-21T12:26:09.784Z,11.23
2017-06-21T12:28:43.903Z,10.83
2017-06-21T12:31:18.780Z,10.93
2017-06-21T12:33:52.936Z,11.23
2017-06-21T12:36:28.479Z,11.93
2017-06-21T12:39:02.836Z,11.00
2017-06-21T12:44:51.725Z,11.33
2017-06-21T12:47:25.939Z,10.43
2017-06-21T12:49:59.972Z,11.13
2017-06-21T12:55:49.067Z,10.37
2017-06-21T12:58:23.310Z,10.50
2017-06-21T13:00:57.310Z,12.17
2017-06-21T13:03:31.783Z,10.60
2017-06-21T13:06:05.907Z,10.47
2017-06-21T13:08:40.202Z,10.57
2017-06-21T13:11:14.333Z,10.60
2017-06-21T13:13:48.395Z,10.90
2017-06-21T13:16:22.651Z,11.20
2017-06-21T13:18:56.730Z,11.00
2017-06-21T13:21:30.877Z,10.70
2017-06-21T13:24:05.123Z,11.03
2017-06-21T13:26:39.203Z,11.60
2017-06-21T13:29:13.448Z,12.10
2017-06-21T13:31:48.159Z,11.83
2017-06-21T13:34:22.278Z,11.27
2017-06-21T13:36:56.332Z,11.20
2017-06-21T13:39:30.483Z,10.97
2017-06-21T13:42:04.635Z,12.13
2017-06-21T13:44:38.704Z,10.50
2017-06-21T13:47:12.833Z,11.60
2017-06-21T13:49:47.043Z,11.40
2017-06-21T13:52:21.216Z,10.67
2017-06-21T13:54:55.216Z,11.10
2017-06-21T13:57:29.441Z,11.80
2017-06-21T14:00:03.607Z,12.50
2017-06-21T14:02:37.588Z,11.60
2017-06-21T14:05:11.702Z,11.40
2017-06-21T14:07:45.995Z,10.90
2017-06-21T14:10:20.172Z,11.60
2017-06-21T14:12:54.401Z,11.77
2017-06-21T14:15:28.475Z,10.90
2017-06-21T14:18:02.682Z,12.20
2017-06-21T14:20:36.904Z,11.70
2017-06-21T14:23:10.911Z,12.00
2017-06-21T14:32:15.320Z,12.60
2017-06-21T14:34:49.498Z,12.80
2017-06-21T14:37:23.640Z,11.97
2017-06-21T14:39:57.632Z,11.87
2017-06-21T14:42:31.858Z,11.73
2017-06-21T14:45:05.972Z,12.43
2017-06-21T14:47:39.998Z,11.67
2017-06-21T14:50:14.009Z,12.83
2017-06-21T14:52:48.025Z,12.60
2017-06-21T14:55:22.215Z,13.40
2017-06-21T14:57:56.204Z,13.43
2017-06-21T15:00:30.694Z,14.00
2017-06-21T15:03:04.872Z,13.13
2017-06-21T15:12:09.847Z,13.60
2017-06-21T15:14:43.895Z,14.20
2017-06-21T15:17:17.972Z,13.70
2017-06-21T15:19:52.153Z,13.77
2017-06-21T15:22:26.297Z,13.30
2017-06-21T15:25:00.492Z,13.60
2017-06-21T15:27:34.544Z,13.10
2017-06-21T15:30:08.527Z,14.90
2017-06-21T15:35:57.938Z,13.73
2017-06-21T15:38:32.083Z,13.60
2017-06-21T15:41:06.114Z,13.57
2017-06-21T15:43:40.192Z,13.03
2017-06-21T15:46:14.416Z,14.17
2017-06-21T15:48:48.573Z,14.57
2017-06-21T15:51:22.753Z,14.13
2017-06-21T15:53:56.800Z,13.90
2017-06-21T15:59:45.467Z,12.93
2017-06-21T16:05:34.182Z,13.37
2017-06-21T16:08:08.403Z,13.67
2017-06-21T16:10:42.639Z,13.17
2017-06-21T16:13:16.840Z,13.80
2017-06-21T16:15:50.905Z,13.13
2017-06-21T16:18:25.143Z,13.97
2017-06-21T16:20:59.236Z,13.03
2017-06-21T16:23:33.412Z,13.40
2017-06-21T16:26:07.603Z,13.53
2017-06-21T16:28:41.689Z,13.27
2017-06-21T16:31:15.872Z,14.10
2017-06-21T16:33:50.109Z,12.60
2017-06-21T16:36:24.259Z,13.07
2017-06-21T16:45:28.283Z,13.97
2017-06-21T16:48:02.324Z,14.27
2017-06-21T16:50:36.588Z,14.10
2017-06-21T16:53:10.831Z,14.00
2017-06-21T16:55:44.877Z,14.77
2017-06-21T16:58:19.061Z,13.93
2017-06-21T17:00:54.563Z,13.33
2017-06-21T17:03:28.848Z,14.50
2017-06-21T17:06:02.872Z,15.37
2017-06-21T17:08:37.060Z,14.17
2017-06-21T17:11:11.177Z,14.27
2017-06-21T17:13:45.253Z,14.87
2017-06-21T17:16:19.526Z,14.67
2017-06-21T17:18:53.690Z,14.00
2017-06-21T17:21:27.919Z,15.13
2017-06-21T17:24:02.068Z,15.33
2017-06-21T17:26:36.298Z,14.67
2017-06-21T17:29:10.490Z,14.70
2017-06-21T17:31:45.488Z,15.10
2017-06-21T17:34:19.597Z,15.67
2017-06-21T17:36:53.807Z,15.13
2017-06-21T17:39:28.123Z,15.50
2017-06-21T17:42:02.189Z,16.40
2017-06-21T17:44:36.485Z,16.50
2017-06-21T17:47:10.767Z,17.03
2017-06-21T17:49:45.088Z,16.10
2017-06-21T17:52:19.212Z,18.63
2017-06-21T17:54:53.495Z,23.33
2017-06-21T17:57:27.734Z,16.80
2017-06-21T18:00:01.964Z,16.20
2017-06-21T18:02:36.118Z,16.00
2017-06-21T18:05:10.232Z,16.23
2017-06-21T18:07:44.342Z,16.17
2017-06-21T18:10:18.589Z,16.47
2017-06-21T18:12:52.677Z,16.50
2017-06-21T18:15:26.893Z,16.20
2017-06-21T18:18:01.024Z,16.40
2017-06-21T18:20:35.161Z,16.60
2017-06-21T18:23:09.344Z,17.83
2017-06-21T18:25:43.540Z,15.80
2017-06-21T18:28:17.751Z,16.83
2017-06-21T18:30:51.808Z,16.70
2017-06-21T18:39:55.985Z,16.90
2017-06-21T18:42:30.147Z,16.63
2017-06-21T18:45:04.156Z,17.00
2017-06-21T18:47:38.181Z,16.83
2017-06-21T18:53:27.028Z,16.60
2017-06-21T18:56:01.076Z,16.73
2017-06-21T18:58:35.279Z,15.53
2017-06-21T19:01:09.370Z,16.27
2017-06-21T19:03:43.525Z,16.90
2017-06-21T19:06:17.885Z,16.50
2017-06-21T19:08:51.994Z,17.10
2017-06-21T19:11:26.273Z,16.40
2017-06-21T19:14:00.297Z,15.60
2017-06-21T19:16:34.533Z,14.90
2017-06-21T19:19:08.573Z,17.03
2017-06-21T19:21:42.660Z,19.27
2017-06-21T19:27:31.399Z,19.23
2017-06-21T19:30:05.496Z,18.03
2017-06-21T19:35:55.124Z,18.43
2017-06-21T19:38:30.327Z,18.47
2017-06-21T19:41:04.351Z,19.63
2017-06-21T19:43:38.422Z,16.97
2017-06-21T19:46:12.782Z,17.17
2017-06-21T19:48:46.784Z,18.07
2017-06-21T19:51:20.972Z,16.07
2017-06-21T19:53:55.091Z,16.33
2017-06-21T19:56:29.414Z,15.97
2017-06-21T19:59:03.545Z,17.07
2017-06-21T20:01:37.767Z,17.50
2017-06-21T20:10:41.452Z,16.10
2017-06-21T20:13:15.605Z,16.10
2017-06-21T20:15:49.955Z,15.57
2017-06-21T20:18:24.263Z,16.07
2017-06-21T20:20:58.466Z,15.90
2017-06-21T20:23:32.643Z,15.67
2017-06-21T20:26:06.807Z,16.17
2017-06-21T20:28:40.846Z,16.00
2017-06-21T20:31:15.069Z,15.83
2017-06-21T20:33:49.332Z,16.13
2017-06-21T20:36:24.021Z,16.50
2017-06-21T20:45:27.777Z,16.67
2017-06-21T20:48:02.692Z,18.27
2017-06-21T20:50:36.982Z,16.80
2017-06-21T20:53:11.286Z,17.50
2017-06-21T20:55:45.577Z,17.20
2017-06-21T20:58:19.867Z,17.17
2017-06-21T21:00:55.262Z,17.07
2017-06-21T21:03:29.320Z,15.27
2017-06-21T21:06:03.371Z,16.73
2017-06-21T21:08:37.734Z,17.60
2017-06-21T21:11:11.941Z,17.10
2017-06-21T21:13:45.972Z,20.33
2017-06-21T21:19:34.550Z,16.27
2017-06-21T21:22:08.712Z,15.43
2017-06-21T21:24:43.089Z,17.90
2017-06-21T21:27:17.269Z,17.00
2017-06-21T21:29:51.641Z,16.77
2017-06-21T21:35:41.825Z,17.37
2017-06-21T21:38:16.632Z,17.37
2017-06-21T21:40:50.889Z,16.40
2017-06-21T21:43:25.199Z,16.50
2017-06-21T21:45:59.369Z,16.70
2017-06-21T21:48:33.612Z,16.53
2017-06-21T21:51:08.062Z,17.10
2017-06-21T21:53:42.452Z,17.73
2017-06-21T21:56:16.618Z,17.13
2017-06-21T21:58:50.943Z,15.50
2017-06-21T22:07:55.208Z,15.77
2017-06-21T22:10:29.543Z,16.00
2017-06-21T22:13:03.932Z,17.57
2017-06-21T22:15:38.004Z,17.57
2017-06-21T22:18:12.241Z,16.13
2017-06-21T22:20:46.463Z,15.13
2017-06-21T22:23:20.937Z,16.33
2017-06-21T22:25:55.157Z,16.50
2017-06-21T22:28:29.283Z,17.27
2017-06-21T22:31:03.552Z,17.27
2017-06-21T22:33:37.709Z,17.20
2017-06-21T22:42:42.913Z,17.20
2017-06-21T22:45:17.273Z,15.33
2017-06-21T22:47:51.345Z,17.70
2017-06-21T22:50:25.842Z,18.87
2017-06-21T22:52:59.988Z,19.50
2017-06-21T22:55:34.149Z,21.73
2017-06-21T22:58:08.412Z,19.37
2017-06-21T23:00:42.726Z,19.60
2017-06-21T23:03:16.937Z,18.60
2017-06-21T23:05:51.085Z,18.30
2017-06-21T23:08:25.156Z,18.93
2017-06-21T23:10:59.251Z,18.50
2017-06-21T23:13:33.429Z,17.47
2017-06-21T23:16:07.627Z,17.53
2017-06-21T23:18:41.736Z,17.90
2017-06-21T23:21:15.865Z,17.70
2017-06-21T23:23:49.927Z,17.90
2017-06-21T23:26:24.136Z,17.33
2017-06-21T23:28:58.252Z,18.60
2017-06-21T23:31:32.471Z,19.17
2017-06-21T23:34:06.744Z,19.23
2017-06-21T23:36:41.081Z,18.97
2017-06-21T23:39:15.317Z,17.57
2017-06-21T23:41:49.416Z,17.80
2017-06-21T23:44:23.744Z,19.90
2017-06-21T23:46:57.931Z,16.80
2017-06-21T23:49:32.169Z,17.50
2017-06-21T23:52:06.214Z,19.60
2017-06-21T23:54:40.305Z,16.97
2017-06-21T23:57:14.526Z,20.93
2017-06-21T23:59:48.515Z,19.93
